sensor_id;sensor_type;location;lat;lon;timestamp;pressure;altitude;pressure_sealevel;temperature;humidity
28289;BME280;15558;50.874;6.964;2022-07-06T00:00:38;102061.22;;;22.03;44.17
28289;BME280;15558;50.874;6.964;2022-07-06T00:03:04;102061.41;;;21.98;43.98
28289;BME280;15558;50.874;6.964;2022-07-06T00:05:30;102065.13;;;21.99;44.31
28289;BME280;15558;50.874;6.964;2022-07-06T00:07:56;102063.63;;;21.93;43.88
28289;BME280;15558;50.874;6.964;2022-07-06T00:10:22;102060.97;;;21.88;44.20
28289;BME280;15558;50.874;6.964;2022-07-06T00:12:48;102065.03;;;21.79;44.38
28289;BME280;15558;50.874;6.964;2022-07-06T00:15:14;102058.69;;;21.73;44.83
28289;BME280;15558;50.874;6.964;2022-07-06T00:17:40;102050.28;;;21.68;44.97
28289;BME280;15558;50.874;6.964;2022-07-06T00:20:07;102059.03;;;21.63;45.04
28289;BME280;15558;50.874;6.964;2022-07-06T00:22:32;102063.97;;;21.54;44.92
28289;BME280;15558;50.874;6.964;2022-07-06T00:24:58;102067.66;;;21.55;45.04
28289;BME280;15558;50.874;6.964;2022-07-06T00:27:24;102076.25;;;21.47;45.65
28289;BME280;15558;50.874;6.964;2022-07-06T00:29:50;102061.44;;;21.36;44.99
28289;BME280;15558;50.874;6.964;2022-07-06T00:32:16;102062.47;;;21.40;45.40
28289;BME280;15558;50.874;6.964;2022-07-06T00:34:42;102059.94;;;21.30;45.16
28289;BME280;15558;50.874;6.964;2022-07-06T00:37:08;102058.44;;;21.24;45.21
28289;BME280;15558;50.874;6.964;2022-07-06T00:39:34;102060.66;;;21.19;45.19
28289;BME280;15558;50.874;6.964;2022-07-06T00:42:00;102060.81;;;21.14;45.30
28289;BME280;15558;50.874;6.964;2022-07-06T00:44:26;102070.91;;;21.11;45.43
28289;BME280;15558;50.874;6.964;2022-07-06T00:46:52;102071.72;;;21.12;45.53
28289;BME280;15558;50.874;6.964;2022-07-06T00:49:18;102062.16;;;21.00;45.68
28289;BME280;15558;50.874;6.964;2022-07-06T00:52:02;102066.88;;;20.96;45.60
28289;BME280;15558;50.874;6.964;2022-07-06T00:54:31;102066.22;;;20.90;45.89
28289;BME280;15558;50.874;6.964;2022-07-06T00:56:58;102064.19;;;20.91;45.69
28289;BME280;15558;50.874;6.964;2022-07-06T00:59:24;102068.25;;;20.81;46.04
28289;BME280;15558;50.874;6.964;2022-07-06T01:01:50;102072.56;;;20.79;46.21
28289;BME280;15558;50.874;6.964;2022-07-06T01:04:16;102068.56;;;20.72;46.46
28289;BME280;15558;50.874;6.964;2022-07-06T01:06:44;102078.78;;;20.73;46.64
28289;BME280;15558;50.874;6.964;2022-07-06T01:09:11;102071.91;;;20.65;46.55
28289;BME280;15558;50.874;6.964;2022-07-06T01:11:37;102072.38;;;20.59;46.99
28289;BME280;15558;50.874;6.964;2022-07-06T01:14:03;102082.28;;;20.53;47.13
28289;BME280;15558;50.874;6.964;2022-07-06T01:16:29;102083.09;;;20.53;47.11
28289;BME280;15558;50.874;6.964;2022-07-06T01:18:55;102077.38;;;20.45;47.54
28289;BME280;15558;50.874;6.964;2022-07-06T01:21:21;102087.47;;;20.51;47.37
28289;BME280;15558;50.874;6.964;2022-07-06T01:23:47;102084.44;;;20.47;47.36
28289;BME280;15558;50.874;6.964;2022-07-06T01:26:16;102085.75;;;20.33;47.72
28289;BME280;15558;50.874;6.964;2022-07-06T01:28:45;102081.06;;;20.37;47.64
28289;BME280;15558;50.874;6.964;2022-07-06T01:31:19;102085.91;;;20.28;47.87
28289;BME280;15558;50.874;6.964;2022-07-06T01:33:46;102084.72;;;20.29;47.64
28289;BME280;15558;50.874;6.964;2022-07-06T01:36:12;102080.03;;;20.25;48.00
28289;BME280;15558;50.874;6.964;2022-07-06T01:38:48;102080.03;;;20.25;47.88
28289;BME280;15558;50.874;6.964;2022-07-06T01:41:15;102084.91;;;20.24;47.74
28289;BME280;15558;50.874;6.964;2022-07-06T01:43:41;102074.81;;;20.18;48.05
28289;BME280;15558;50.874;6.964;2022-07-06T01:46:07;102076.13;;;20.12;48.21
28289;BME280;15558;50.874;6.964;2022-07-06T01:48:33;102078.47;;;20.10;48.09
28289;BME280;15558;50.874;6.964;2022-07-06T01:51:00;102073.56;;;20.03;48.36
28289;BME280;15558;50.874;6.964;2022-07-06T01:53:25;102077.59;;;20.02;48.35
28289;BME280;15558;50.874;6.964;2022-07-06T01:55:51;102080.28;;;19.98;48.59
28289;BME280;15558;50.874;6.964;2022-07-06T01:58:17;102072.06;;;19.97;48.68
28289;BME280;15558;50.874;6.964;2022-07-06T02:00:43;102067.69;;;19.91;48.40
28289;BME280;15558;50.874;6.964;2022-07-06T02:03:09;102071.03;;;19.93;48.71
28289;BME280;15558;50.874;6.964;2022-07-06T02:05:35;102075.38;;;19.90;48.53
28289;BME280;15558;50.874;6.964;2022-07-06T02:08:01;102075.00;;;19.83;48.70
28289;BME280;15558;50.874;6.964;2022-07-06T02:10:27;102082.56;;;19.88;48.67
28289;BME280;15558;50.874;6.964;2022-07-06T02:12:53;102078.69;;;19.84;48.92
28289;BME280;15558;50.874;6.964;2022-07-06T02:15:19;102076.34;;;19.86;48.72
28289;BME280;15558;50.874;6.964;2022-07-06T02:17:45;102082.72;;;19.83;49.03
28289;BME280;15558;50.874;6.964;2022-07-06T02:20:11;102081.38;;;19.80;48.85
28289;BME280;15558;50.874;6.964;2022-07-06T02:22:37;102076.66;;;19.76;49.00
28289;BME280;15558;50.874;6.964;2022-07-06T02:25:03;102082.16;;;19.72;49.13
28289;BME280;15558;50.874;6.964;2022-07-06T02:27:29;102077.09;;;19.69;49.11
28289;BME280;15558;50.874;6.964;2022-07-06T02:29:55;102082.09;;;19.64;49.37
28289;BME280;15558;50.874;6.964;2022-07-06T02:32:21;102084.97;;;19.64;49.26
28289;BME280;15558;50.874;6.964;2022-07-06T02:34:47;102089.09;;;19.58;49.53
28289;BME280;15558;50.874;6.964;2022-07-06T02:37:13;102088.06;;;19.54;49.69
28289;BME280;15558;50.874;6.964;2022-07-06T02:39:39;102084.00;;;19.47;49.53
28289;BME280;15558;50.874;6.964;2022-07-06T02:42:05;102080.31;;;19.46;49.82
28289;BME280;15558;50.874;6.964;2022-07-06T02:44:31;102083.13;;;19.38;50.06
28289;BME280;15558;50.874;6.964;2022-07-06T02:46:57;102087.97;;;19.37;50.01
28289;BME280;15558;50.874;6.964;2022-07-06T02:49:23;102085.72;;;19.26;50.27
28289;BME280;15558;50.874;6.964;2022-07-06T02:51:49;102083.22;;;19.25;50.23
28289;BME280;15558;50.874;6.964;2022-07-06T02:54:14;102087.97;;;19.16;50.46
28289;BME280;15558;50.874;6.964;2022-07-06T02:56:41;102087.81;;;19.12;50.58
28289;BME280;15558;50.874;6.964;2022-07-06T02:59:07;102093.50;;;19.12;50.80
28289;BME280;15558;50.874;6.964;2022-07-06T03:01:33;102091.63;;;19.08;50.74
28289;BME280;15558;50.874;6.964;2022-07-06T03:03:59;102082.56;;;19.06;50.90
28289;BME280;15558;50.874;6.964;2022-07-06T03:06:25;102083.53;;;19.01;51.00
28289;BME280;15558;50.874;6.964;2022-07-06T03:08:50;102087.84;;;18.99;50.84
28289;BME280;15558;50.874;6.964;2022-07-06T03:11:16;102087.97;;;18.94;51.03
28289;BME280;15558;50.874;6.964;2022-07-06T03:13:42;102092.00;;;18.93;51.10
28289;BME280;15558;50.874;6.964;2022-07-06T03:16:08;102089.44;;;18.92;51.32
28289;BME280;15558;50.874;6.964;2022-07-06T03:18:34;102099.28;;;18.86;51.47
28289;BME280;15558;50.874;6.964;2022-07-06T03:21:00;102093.91;;;18.84;51.48
28289;BME280;15558;50.874;6.964;2022-07-06T03:23:30;102094.22;;;18.83;51.46
28289;BME280;15558;50.874;6.964;2022-07-06T03:25:56;102093.19;;;18.79;51.58
28289;BME280;15558;50.874;6.964;2022-07-06T03:28:22;102098.69;;;18.75;51.72
28289;BME280;15558;50.874;6.964;2022-07-06T03:30:47;102105.19;;;18.76;51.73
28289;BME280;15558;50.874;6.964;2022-07-06T03:33:13;102098.47;;;18.72;51.81
28289;BME280;15558;50.874;6.964;2022-07-06T03:35:39;102101.97;;;18.69;52.00
28289;BME280;15558;50.874;6.964;2022-07-06T03:38:05;102096.44;;;18.72;51.88
28289;BME280;15558;50.874;6.964;2022-07-06T03:40:31;102099.75;;;18.66;51.81
28289;BME280;15558;50.874;6.964;2022-07-06T03:42:57;102118.50;;;18.67;52.16
28289;BME280;15558;50.874;6.964;2022-07-06T03:45:23;102122.31;;;18.63;52.13
28289;BME280;15558;50.874;6.964;2022-07-06T03:47:49;102112.31;;;18.65;52.24
28289;BME280;15558;50.874;6.964;2022-07-06T03:50:15;102122.09;;;18.59;52.35
28289;BME280;15558;50.874;6.964;2022-07-06T03:52:41;102121.91;;;18.56;52.71
28289;BME280;15558;50.874;6.964;2022-07-06T03:55:10;102113.69;;;18.54;52.70
28289;BME280;15558;50.874;6.964;2022-07-06T03:57:37;102109.69;;;18.55;52.79
28289;BME280;15558;50.874;6.964;2022-07-06T04:00:05;102105.88;;;18.60;52.83
28289;BME280;15558;50.874;6.964;2022-07-06T04:02:31;102105.03;;;18.59;53.03
28289;BME280;15558;50.874;6.964;2022-07-06T04:04:57;102111.78;;;18.63;52.88
28289;BME280;15558;50.874;6.964;2022-07-06T04:07:24;102106.91;;;18.63;53.11
28289;BME280;15558;50.874;6.964;2022-07-06T04:09:50;102114.19;;;18.69;52.65
28289;BME280;15558;50.874;6.964;2022-07-06T04:12:16;102113.66;;;18.67;52.73
28289;BME280;15558;50.874;6.964;2022-07-06T04:14:43;102112.00;;;18.66;52.71
28289;BME280;15558;50.874;6.964;2022-07-06T04:17:08;102113.03;;;18.70;52.78
28289;BME280;15558;50.874;6.964;2022-07-06T04:19:53;102117.69;;;18.66;52.89
28289;BME280;15558;50.874;6.964;2022-07-06T04:22:19;102113.97;;;18.66;52.99
28289;BME280;15558;50.874;6.964;2022-07-06T04:24:45;102113.66;;;18.67;53.02
28289;BME280;15558;50.874;6.964;2022-07-06T04:27:11;102129.56;;;18.68;52.82
28289;BME280;15558;50.874;6.964;2022-07-06T04:29:37;102125.69;;;18.64;52.64
28289;BME280;15558;50.874;6.964;2022-07-06T04:32:03;102129.50;;;18.60;53.07
28289;BME280;15558;50.874;6.964;2022-07-06T04:34:29;102132.13;;;18.57;53.17
28289;BME280;15558;50.874;6.964;2022-07-06T04:36:55;102131.38;;;18.64;52.78
28289;BME280;15558;50.874;6.964;2022-07-06T04:39:21;102139.38;;;18.63;53.40
28289;BME280;15558;50.874;6.964;2022-07-06T04:41:47;102134.53;;;18.63;53.34
28289;BME280;15558;50.874;6.964;2022-07-06T04:44:13;102130.50;;;18.64;53.53
28289;BME280;15558;50.874;6.964;2022-07-06T04:46:39;102134.84;;;18.62;53.88
28289;BME280;15558;50.874;6.964;2022-07-06T04:49:05;102131.03;;;18.66;53.68
28289;BME280;15558;50.874;6.964;2022-07-06T04:51:30;102128.72;;;18.68;53.54
28289;BME280;15558;50.874;6.964;2022-07-06T04:53:56;102127.13;;;18.75;53.49
28289;BME280;15558;50.874;6.964;2022-07-06T04:56:22;102123.53;;;18.83;53.63
28289;BME280;15558;50.874;6.964;2022-07-06T04:58:48;102129.09;;;18.88;53.18
28289;BME280;15558;50.874;6.964;2022-07-06T05:01:14;102126.25;;;18.88;53.11
28289;BME280;15558;50.874;6.964;2022-07-06T05:03:40;102137.41;;;18.98;53.43
28289;BME280;15558;50.874;6.964;2022-07-06T05:06:07;102136.13;;;19.04;53.55
28289;BME280;15558;50.874;6.964;2022-07-06T05:08:34;102146.69;;;19.03;53.15
28289;BME280;15558;50.874;6.964;2022-07-06T05:11:00;102137.50;;;19.06;53.29
28289;BME280;15558;50.874;6.964;2022-07-06T05:13:26;102145.06;;;19.11;54.08
28289;BME280;15558;50.874;6.964;2022-07-06T05:15:52;102137.56;;;19.15;53.37
28289;BME280;15558;50.874;6.964;2022-07-06T05:18:18;102135.53;;;19.15;52.98
28289;BME280;15558;50.874;6.964;2022-07-06T05:20:44;102148.28;;;19.18;53.39
28289;BME280;15558;50.874;6.964;2022-07-06T05:23:10;102137.31;;;19.25;52.86
28289;BME280;15558;50.874;6.964;2022-07-06T05:25:36;102138.50;;;19.32;53.05
28289;BME280;15558;50.874;6.964;2022-07-06T05:28:03;102129.91;;;19.45;53.09
28289;BME280;15558;50.874;6.964;2022-07-06T05:30:29;102139.50;;;19.49;53.32
28289;BME280;15558;50.874;6.964;2022-07-06T05:32:55;102128.47;;;19.56;52.79
28289;BME280;15558;50.874;6.964;2022-07-06T05:35:21;102126.00;;;19.63;52.41
28289;BME280;15558;50.874;6.964;2022-07-06T05:37:47;102137.28;;;19.68;52.53
28289;BME280;15558;50.874;6.964;2022-07-06T05:40:13;102126.91;;;19.72;52.63
28289;BME280;15558;50.874;6.964;2022-07-06T05:42:38;102120.84;;;19.73;52.43
28289;BME280;15558;50.874;6.964;2022-07-06T05:45:05;102124.81;;;19.86;52.64
28289;BME280;15558;50.874;6.964;2022-07-06T05:47:32;102131.03;;;19.88;52.74
28289;BME280;15558;50.874;6.964;2022-07-06T05:50:16;102139.44;;;19.93;52.23
28289;BME280;15558;50.874;6.964;2022-07-06T05:52:56;102134.28;;;19.95;52.29
28289;BME280;15558;50.874;6.964;2022-07-06T05:55:22;102144.84;;;20.03;51.95
28289;BME280;15558;50.874;6.964;2022-07-06T05:57:48;102137.47;;;20.02;52.31
28289;BME280;15558;50.874;6.964;2022-07-06T06:00:16;102141.50;;;20.09;51.98
28289;BME280;15558;50.874;6.964;2022-07-06T06:02:42;102143.91;;;20.15;51.85
28289;BME280;15558;50.874;6.964;2022-07-06T06:05:09;102149.47;;;20.20;51.85
28289;BME280;15558;50.874;6.964;2022-07-06T06:07:37;102149.16;;;20.30;52.06
28289;BME280;15558;50.874;6.964;2022-07-06T06:10:06;102148.88;;;20.40;51.75
28289;BME280;15558;50.874;6.964;2022-07-06T06:12:32;102160.16;;;20.53;51.50
28289;BME280;15558;50.874;6.964;2022-07-06T06:14:58;102151.97;;;20.69;51.74
28289;BME280;15558;50.874;6.964;2022-07-06T06:17:24;102151.66;;;20.78;51.52
28289;BME280;15558;50.874;6.964;2022-07-06T06:19:50;102151.19;;;20.93;51.16
28289;BME280;15558;50.874;6.964;2022-07-06T06:22:16;102151.19;;;21.02;50.81
28289;BME280;15558;50.874;6.964;2022-07-06T06:24:42;102151.53;;;21.00;50.60
28289;BME280;15558;50.874;6.964;2022-07-06T06:27:08;102165.31;;;21.15;50.07
28289;BME280;15558;50.874;6.964;2022-07-06T06:29:33;102152.03;;;21.27;49.96
28289;BME280;15558;50.874;6.964;2022-07-06T06:31:59;102156.38;;;21.25;49.78
28289;BME280;15558;50.874;6.964;2022-07-06T06:34:25;102148.31;;;21.27;50.31
28289;BME280;15558;50.874;6.964;2022-07-06T06:36:51;102148.81;;;21.29;49.85
28289;BME280;15558;50.874;6.964;2022-07-06T06:39:17;102147.00;;;21.49;50.24
28289;BME280;15558;50.874;6.964;2022-07-06T06:41:43;102152.88;;;21.53;49.30
28289;BME280;15558;50.874;6.964;2022-07-06T06:44:09;102150.19;;;21.56;49.04
28289;BME280;15558;50.874;6.964;2022-07-06T06:46:35;102157.22;;;21.76;48.96
28289;BME280;15558;50.874;6.964;2022-07-06T06:49:01;102150.97;;;21.82;48.86
28289;BME280;15558;50.874;6.964;2022-07-06T06:51:27;102160.72;;;21.89;48.55
28289;BME280;15558;50.874;6.964;2022-07-06T06:53:53;102151.09;;;21.94;48.57
28289;BME280;15558;50.874;6.964;2022-07-06T06:56:20;102156.84;;;21.85;48.54
28289;BME280;15558;50.874;6.964;2022-07-06T06:58:46;102158.00;;;21.93;47.49
28289;BME280;15558;50.874;6.964;2022-07-06T07:01:12;102158.19;;;21.88;48.20
28289;BME280;15558;50.874;6.964;2022-07-06T07:03:38;102156.13;;;21.97;47.25
28289;BME280;15558;50.874;6.964;2022-07-06T07:06:04;102154.94;;;22.06;47.72
28289;BME280;15558;50.874;6.964;2022-07-06T07:08:30;102150.50;;;22.25;47.64
28289;BME280;15558;50.874;6.964;2022-07-06T07:10:56;102156.75;;;22.11;46.86
28289;BME280;15558;50.874;6.964;2022-07-06T07:13:23;102156.09;;;22.14;47.21
28289;BME280;15558;50.874;6.964;2022-07-06T07:15:49;102164.50;;;22.18;46.43
28289;BME280;15558;50.874;6.964;2022-07-06T07:18:14;102162.81;;;22.17;47.13
28289;BME280;15558;50.874;6.964;2022-07-06T07:20:40;102166.03;;;22.16;46.71
28289;BME280;15558;50.874;6.964;2022-07-06T07:23:06;102156.09;;;22.14;47.18
28289;BME280;15558;50.874;6.964;2022-07-06T07:25:32;102154.91;;;22.23;47.34
28289;BME280;15558;50.874;6.964;2022-07-06T07:27:58;102158.63;;;22.15;46.98
28289;BME280;15558;50.874;6.964;2022-07-06T07:30:24;102157.09;;;22.17;46.92
28289;BME280;15558;50.874;6.964;2022-07-06T07:32:50;102160.31;;;22.08;46.81
28289;BME280;15558;50.874;6.964;2022-07-06T07:35:16;102162.31;;;22.07;47.01
28289;BME280;15558;50.874;6.964;2022-07-06T07:37:42;102171.06;;;22.11;47.30
28289;BME280;15558;50.874;6.964;2022-07-06T07:40:08;102168.03;;;22.07;46.47
28289;BME280;15558;50.874;6.964;2022-07-06T07:42:35;102163.31;;;22.19;46.95
28289;BME280;15558;50.874;6.964;2022-07-06T07:45:01;102171.84;;;22.28;45.45
28289;BME280;15558;50.874;6.964;2022-07-06T07:47:27;102165.50;;;22.22;45.62
28289;BME280;15558;50.874;6.964;2022-07-06T07:49:53;102179.47;;;22.16;46.03
28289;BME280;15558;50.874;6.964;2022-07-06T07:52:18;102170.56;;;22.09;45.57
28289;BME280;15558;50.874;6.964;2022-07-06T07:54:44;102171.25;;;22.14;45.82
28289;BME280;15558;50.874;6.964;2022-07-06T07:57:10;102164.31;;;22.23;46.76
28289;BME280;15558;50.874;6.964;2022-07-06T07:59:36;102161.75;;;22.30;45.42
28289;BME280;15558;50.874;6.964;2022-07-06T08:02:02;102166.47;;;22.35;45.80
28289;BME280;15558;50.874;6.964;2022-07-06T08:04:28;102169.19;;;22.23;46.32
28289;BME280;15558;50.874;6.964;2022-07-06T08:06:54;102172.88;;;22.23;46.95
28289;BME280;15558;50.874;6.964;2022-07-06T08:09:21;102162.16;;;22.20;46.32
28289;BME280;15558;50.874;6.964;2022-07-06T08:11:46;102178.81;;;22.18;47.51
28289;BME280;15558;50.874;6.964;2022-07-06T08:14:12;102170.06;;;22.07;47.08
28289;BME280;15558;50.874;6.964;2022-07-06T08:16:40;102165.53;;;22.06;46.39
28289;BME280;15558;50.874;6.964;2022-07-06T08:19:06;102168.44;;;21.97;46.85
28289;BME280;15558;50.874;6.964;2022-07-06T08:21:32;102163.06;;;21.87;46.62
28289;BME280;15558;50.874;6.964;2022-07-06T08:23:58;102167.63;;;21.80;47.83
28289;BME280;15558;50.874;6.964;2022-07-06T08:26:26;102177.88;;;21.81;48.01
28289;BME280;15558;50.874;6.964;2022-07-06T08:28:52;102163.25;;;21.74;47.43
28289;BME280;15558;50.874;6.964;2022-07-06T08:31:18;102170.81;;;21.70;47.74
28289;BME280;15558;50.874;6.964;2022-07-06T08:33:44;102172.19;;;21.73;47.13
28289;BME280;15558;50.874;6.964;2022-07-06T08:36:10;102174.19;;;21.72;47.07
28289;BME280;15558;50.874;6.964;2022-07-06T08:38:36;102167.31;;;21.73;46.07
28289;BME280;15558;50.874;6.964;2022-07-06T08:41:03;102162.94;;;21.67;45.91
28289;BME280;15558;50.874;6.964;2022-07-06T08:43:32;102167.66;;;21.63;46.41
28289;BME280;15558;50.874;6.964;2022-07-06T08:45:58;102171.84;;;21.66;46.87
28289;BME280;15558;50.874;6.964;2022-07-06T08:48:24;102160.41;;;21.66;46.93
28289;BME280;15558;50.874;6.964;2022-07-06T08:50:51;102160.09;;;21.67;47.20
28289;BME280;15558;50.874;6.964;2022-07-06T08:53:18;102170.66;;;21.75;47.49
28289;BME280;15558;50.874;6.964;2022-07-06T08:55:44;102168.66;;;21.67;47.51
28289;BME280;15558;50.874;6.964;2022-07-06T08:58:11;102172.53;;;21.71;47.79
28289;BME280;15558;50.874;6.964;2022-07-06T09:00:38;102165.94;;;21.79;47.57
28289;BME280;15558;50.874;6.964;2022-07-06T09:03:05;102166.06;;;21.91;47.59
28289;BME280;15558;50.874;6.964;2022-07-06T09:05:32;102157.81;;;21.98;47.25
28289;BME280;15558;50.874;6.964;2022-07-06T09:07:58;102170.09;;;21.98;46.48
28289;BME280;15558;50.874;6.964;2022-07-06T09:10:25;102167.41;;;22.02;46.20
28289;BME280;15558;50.874;6.964;2022-07-06T09:12:51;102166.72;;;22.05;46.38
28289;BME280;15558;50.874;6.964;2022-07-06T09:15:17;102160.66;;;22.06;47.19
28289;BME280;15558;50.874;6.964;2022-07-06T09:17:44;102168.03;;;22.07;46.19
28289;BME280;15558;50.874;6.964;2022-07-06T09:20:11;102173.44;;;22.09;46.50
28289;BME280;15558;50.874;6.964;2022-07-06T09:22:38;102169.38;;;22.10;46.07
28289;BME280;15558;50.874;6.964;2022-07-06T09:25:11;102163.31;;;22.19;46.14
28289;BME280;15558;50.874;6.964;2022-07-06T09:27:45;102174.88;;;22.31;46.03
28289;BME280;15558;50.874;6.964;2022-07-06T09:30:14;102166.78;;;22.33;45.79
28289;BME280;15558;50.874;6.964;2022-07-06T09:32:42;102168.13;;;22.36;45.78
28289;BME280;15558;50.874;6.964;2022-07-06T09:35:19;102175.88;;;22.35;45.71
28289;BME280;15558;50.874;6.964;2022-07-06T09:37:45;102172.03;;;22.31;46.25
28289;BME280;15558;50.874;6.964;2022-07-06T09:40:17;102174.22;;;22.26;46.79
28289;BME280;15558;50.874;6.964;2022-07-06T09:42:45;102161.44;;;22.23;46.07
28289;BME280;15558;50.874;6.964;2022-07-06T09:45:11;102167.63;;;22.34;45.65
28289;BME280;15558;50.874;6.964;2022-07-06T09:47:37;102166.09;;;22.36;45.02
28289;BME280;15558;50.874;6.964;2022-07-06T09:50:06;102171.44;;;22.46;44.57
28289;BME280;15558;50.874;6.964;2022-07-06T09:52:35;102167.53;;;22.51;44.29
28289;BME280;15558;50.874;6.964;2022-07-06T09:55:06;102175.78;;;22.52;45.23
28289;BME280;15558;50.874;6.964;2022-07-06T09:57:39;102169.81;;;22.65;44.50
28289;BME280;15558;50.874;6.964;2022-07-06T10:00:18;102169.63;;;22.70;44.38
28289;BME280;15558;50.874;6.964;2022-07-06T10:02:45;102178.34;;;22.74;44.26
28289;BME280;15558;50.874;6.964;2022-07-06T10:05:16;102182.41;;;22.73;43.53
28289;BME280;15558;50.874;6.964;2022-07-06T10:07:45;102176.19;;;22.71;43.84
28289;BME280;15558;50.874;6.964;2022-07-06T10:10:11;102168.88;;;22.82;43.85
28289;BME280;15558;50.874;6.964;2022-07-06T10:12:40;102176.59;;;22.89;43.63
28289;BME280;15558;50.874;6.964;2022-07-06T10:15:08;102177.59;;;22.93;44.01
28289;BME280;15558;50.874;6.964;2022-07-06T10:17:34;102173.28;;;23.08;43.45
28289;BME280;15558;50.874;6.964;2022-07-06T10:20:01;102174.34;;;23.24;42.66
28289;BME280;15558;50.874;6.964;2022-07-06T10:22:27;102172.28;;;23.64;41.71
28289;BME280;15558;50.874;6.964;2022-07-06T10:24:54;102162.06;;;24.19;42.31
28289;BME280;15558;50.874;6.964;2022-07-06T10:27:22;102164.75;;;24.48;40.72
28289;BME280;15558;50.874;6.964;2022-07-06T10:29:49;102158.44;;;24.54;39.66
28289;BME280;15558;50.874;6.964;2022-07-06T10:32:18;102159.94;;;24.99;39.10
28289;BME280;15558;50.874;6.964;2022-07-06T10:34:45;102151.63;;;25.33;38.86
28289;BME280;15558;50.874;6.964;2022-07-06T10:37:25;102151.78;;;25.52;39.17
28289;BME280;15558;50.874;6.964;2022-07-06T10:39:52;102137.16;;;25.84;38.52
28289;BME280;15558;50.874;6.964;2022-07-06T10:45:08;102137.72;;;25.89;36.71
28289;BME280;15558;50.874;6.964;2022-07-06T10:47:34;102139.28;;;26.29;35.95
28289;BME280;15558;50.874;6.964;2022-07-06T10:50:01;102135.75;;;26.36;35.19
28289;BME280;15558;50.874;6.964;2022-07-06T10:52:50;102127.75;;;26.29;34.91
28289;BME280;15558;50.874;6.964;2022-07-06T10:55:35;102129.56;;;26.07;35.65
28289;BME280;15558;50.874;6.964;2022-07-06T10:58:03;102131.94;;;26.32;36.20
28289;BME280;15558;50.874;6.964;2022-07-06T11:06:24;102133.94;;;26.77;35.27
28289;BME280;15558;50.874;6.964;2022-07-06T11:09:01;102121.66;;;26.95;34.93
28289;BME280;15558;50.874;6.964;2022-07-06T11:16:24;102115.69;;;27.04;35.36
28289;BME280;15558;50.874;6.964;2022-07-06T11:19:20;102127.78;;;26.94;35.73
28289;BME280;15558;50.874;6.964;2022-07-06T11:21:50;102118.75;;;27.11;35.36
28289;BME280;15558;50.874;6.964;2022-07-06T11:24:19;102126.19;;;27.12;35.09
28289;BME280;15558;50.874;6.964;2022-07-06T11:26:47;102131.16;;;26.96;34.92
28289;BME280;15558;50.874;6.964;2022-07-06T11:29:17;102121.41;;;27.19;33.75
28289;BME280;15558;50.874;6.964;2022-07-06T11:31:45;102129.59;;;26.83;32.59
28289;BME280;15558;50.874;6.964;2022-07-06T11:34:17;102124.78;;;26.72;33.48
28289;BME280;15558;50.874;6.964;2022-07-06T11:36:43;102124.63;;;26.34;35.27
28289;BME280;15558;50.874;6.964;2022-07-06T11:39:09;102124.50;;;26.15;35.70
28289;BME280;15558;50.874;6.964;2022-07-06T11:41:35;102116.16;;;26.41;35.37
28289;BME280;15558;50.874;6.964;2022-07-06T11:44:03;102118.66;;;26.43;33.76
28289;BME280;15558;50.874;6.964;2022-07-06T11:46:33;102115.06;;;26.95;32.84
28289;BME280;15558;50.874;6.964;2022-07-06T11:49:05;102120.28;;;26.74;33.74
28289;BME280;15558;50.874;6.964;2022-07-06T11:51:34;102106.66;;;26.71;32.21
28289;BME280;15558;50.874;6.964;2022-07-06T11:54:07;102110.97;;;26.96;32.32
28289;BME280;15558;50.874;6.964;2022-07-06T11:56:34;102117.16;;;26.64;33.83
28289;BME280;15558;50.874;6.964;2022-07-06T11:59:00;102113.19;;;27.02;33.12
28289;BME280;15558;50.874;6.964;2022-07-06T12:01:27;102108.03;;;26.62;32.20
28289;BME280;15558;50.874;6.964;2022-07-06T12:03:58;102105.88;;;26.74;33.38
28289;BME280;15558;50.874;6.964;2022-07-06T12:06:25;102107.13;;;26.58;33.25
28289;BME280;15558;50.874;6.964;2022-07-06T12:08:57;102105.44;;;26.11;33.66
28289;BME280;15558;50.874;6.964;2022-07-06T12:11:30;102106.25;;;25.96;35.34
28289;BME280;15558;50.874;6.964;2022-07-06T12:14:01;102108.06;;;25.73;35.94
28289;BME280;15558;50.874;6.964;2022-07-06T12:16:32;102102.75;;;25.60;35.88
28289;BME280;15558;50.874;6.964;2022-07-06T12:19:00;102108.66;;;25.52;36.03
28289;BME280;15558;50.874;6.964;2022-07-06T12:21:26;102104.63;;;25.41;36.13
28289;BME280;15558;50.874;6.964;2022-07-06T12:23:54;102104.84;;;25.48;37.40
28289;BME280;15558;50.874;6.964;2022-07-06T12:26:22;102089.97;;;25.46;37.15
28289;BME280;15558;50.874;6.964;2022-07-06T12:29:05;102097.84;;;25.61;36.08
28289;BME280;15558;50.874;6.964;2022-07-06T12:31:37;102094.50;;;26.01;35.53
28289;BME280;15558;50.874;6.964;2022-07-06T12:34:04;102085.50;;;26.18;35.30
28289;BME280;15558;50.874;6.964;2022-07-06T12:36:31;102082.50;;;25.99;35.80
28289;BME280;15558;50.874;6.964;2022-07-06T12:38:57;102077.00;;;25.79;35.42
28289;BME280;15558;50.874;6.964;2022-07-06T12:41:28;102078.38;;;25.70;36.56
28289;BME280;15558;50.874;6.964;2022-07-06T12:44:04;102072.44;;;25.51;36.55
28289;BME280;15558;50.874;6.964;2022-07-06T12:46:32;102075.28;;;25.63;36.40
28289;BME280;15558;50.874;6.964;2022-07-06T12:49:01;102068.63;;;25.47;36.91
28289;BME280;15558;50.874;6.964;2022-07-06T12:51:27;102063.63;;;25.44;37.21
28289;BME280;15558;50.874;6.964;2022-07-06T12:54:11;102066.31;;;25.37;36.43
28289;BME280;15558;50.874;6.964;2022-07-06T12:56:37;102061.19;;;25.58;37.79
28289;BME280;15558;50.874;6.964;2022-07-06T12:59:03;102058.81;;;25.75;35.80
28289;BME280;15558;50.874;6.964;2022-07-06T13:01:29;102058.34;;;25.73;36.26
28289;BME280;15558;50.874;6.964;2022-07-06T13:03:56;102053.03;;;25.75;35.52